sensor_id;sensor_type;location;lat;lon;timestamp;temperature;humidity
64796;DHT22;51229;51.980;6.722;2022-12-07T00:01:34;1.70;99.90
64796;DHT22;51229;51.980;6.722;2022-12-07T00:04:02;1.70;99.90
64796;DHT22;51229;51.980;6.722;2022-12-07T00:06:36;1.70;99.90
64796;DHT22;51229;51.980;6.722;2022-12-07T00:09:03;1.50;99.90
64796;DHT22;51229;51.980;6.722;2022-12-07T00:11:29;1.40;99.90
64796;DHT22;51229;51.980;6.722;2022-12-07T00:14:01;1.40;99.90
64796;DHT22;51229;51.980;6.722;2022-12-07T00:16:29;1.40;99.90
64796;DHT22;51229;51.980;6.722;2022-12-07T00:18:56;1.50;99.90
64796;DHT22;51229;51.980;6.722;2022-12-07T00:21:24;1.60;99.90
64796;DHT22;51229;51.980;6.722;2022-12-07T00:23:51;1.60;99.90
64796;DHT22;51229;51.980;6.722;2022-12-07T00:26:20;1.60;99.90
64796;DHT22;51229;51.980;6.722;2022-12-07T00:28:52;1.60;99.90
64796;DHT22;51229;51.980;6.722;2022-12-07T00:31:19;1.50;99.90
64796;DHT22;51229;51.980;6.722;2022-12-07T00:33:46;1.30;99.90
64796;DHT22;51229;51.980;6.722;2022-12-07T00:36:15;1.40;99.90
64796;DHT22;51229;51.980;6.722;2022-12-07T00:38:41;1.40;99.90
64796;DHT22;51229;51.980;6.722;2022-12-07T00:41:19;1.40;99.90
64796;DHT22;51229;51.980;6.722;2022-12-07T00:43:46;1.40;99.90
64796;DHT22;51229;51.980;6.722;2022-12-07T00:46:13;1.40;99.90
64796;DHT22;51229;51.980;6.722;2022-12-07T00:48:39;1.40;99.90
64796;DHT22;51229;51.980;6.722;2022-12-07T00:51:06;1.40;99.90
64796;DHT22;51229;51.980;6.722;2022-12-07T00:53:34;1.30;99.90
64796;DHT22;51229;51.980;6.722;2022-12-07T00:56:07;1.30;99.90
64796;DHT22;51229;51.980;6.722;2022-12-07T00:58:33;1.40;99.90
64796;DHT22;51229;51.980;6.722;2022-12-07T01:01:03;1.30;99.90
64796;DHT22;51229;51.980;6.722;2022-12-07T01:03:30;1.30;99.90
64796;DHT22;51229;51.980;6.722;2022-12-07T01:05:56;1.10;99.90
64796;DHT22;51229;51.980;6.722;2022-12-07T01:08:23;1.20;99.90
64796;DHT22;51229;51.980;6.722;2022-12-07T01:10:49;1.20;99.90
64796;DHT22;51229;51.980;6.722;2022-12-07T01:13:15;1.20;99.90
64796;DHT22;51229;51.980;6.722;2022-12-07T01:15:43;1.20;99.90
64796;DHT22;51229;51.980;6.722;2022-12-07T01:18:10;1.30;99.90
64796;DHT22;51229;51.980;6.722;2022-12-07T01:20:36;1.30;99.90
64796;DHT22;51229;51.980;6.722;2022-12-07T01:23:02;1.20;99.90
64796;DHT22;51229;51.980;6.722;2022-12-07T01:25:28;1.30;99.90
64796;DHT22;51229;51.980;6.722;2022-12-07T01:27:54;1.20;99.90
64796;DHT22;51229;51.980;6.722;2022-12-07T01:30:20;1.00;99.90
64796;DHT22;51229;51.980;6.722;2022-12-07T01:32:45;1.00;99.90
64796;DHT22;51229;51.980;6.722;2022-12-07T01:35:11;1.00;99.90
64796;DHT22;51229;51.980;6.722;2022-12-07T01:37:37;0.80;99.90
64796;DHT22;51229;51.980;6.722;2022-12-07T01:40:07;0.80;99.90
64796;DHT22;51229;51.980;6.722;2022-12-07T01:42:33;0.80;99.90
64796;DHT22;51229;51.980;6.722;2022-12-07T01:47:54;0.80;99.90
64796;DHT22;51229;51.980;6.722;2022-12-07T01:50:21;1.00;99.90
64796;DHT22;51229;51.980;6.722;2022-12-07T01:52:50;0.90;99.90
64796;DHT22;51229;51.980;6.722;2022-12-07T01:55:17;0.80;99.90
64796;DHT22;51229;51.980;6.722;2022-12-07T01:57:47;0.80;99.90
64796;DHT22;51229;51.980;6.722;2022-12-07T02:00:14;0.80;99.90
64796;DHT22;51229;51.980;6.722;2022-12-07T02:05:18;0.80;99.90
64796;DHT22;51229;51.980;6.722;2022-12-07T02:07:46;0.90;99.90
64796;DHT22;51229;51.980;6.722;2022-12-07T02:10:20;0.90;99.90
64796;DHT22;51229;51.980;6.722;2022-12-07T02:12:50;0.90;99.90
64796;DHT22;51229;51.980;6.722;2022-12-07T02:15:17;1.00;99.90
64796;DHT22;51229;51.980;6.722;2022-12-07T02:18:01;1.00;99.90
64796;DHT22;51229;51.980;6.722;2022-12-07T02:20:34;0.90;99.90
64796;DHT22;51229;51.980;6.722;2022-12-07T02:26:09;0.90;99.90
64796;DHT22;51229;51.980;6.722;2022-12-07T02:31:36;0.70;99.90
64796;DHT22;51229;51.980;6.722;2022-12-07T02:34:34;0.80;99.90
64796;DHT22;51229;51.980;6.722;2022-12-07T02:37:08;0.80;99.90
64796;DHT22;51229;51.980;6.722;2022-12-07T02:39:48;0.70;99.90
64796;DHT22;51229;51.980;6.722;2022-12-07T02:42:20;0.70;99.90
64796;DHT22;51229;51.980;6.722;2022-12-07T02:44:49;0.70;99.90
64796;DHT22;51229;51.980;6.722;2022-12-07T02:47:17;0.60;99.90
64796;DHT22;51229;51.980;6.722;2022-12-07T02:49:45;0.60;99.90
64796;DHT22;51229;51.980;6.722;2022-12-07T02:52:11;0.60;99.90
64796;DHT22;51229;51.980;6.722;2022-12-07T02:54:37;0.60;99.90
64796;DHT22;51229;51.980;6.722;2022-12-07T03:02:38;0.70;99.90
64796;DHT22;51229;51.980;6.722;2022-12-07T03:08:01;0.60;99.90
64796;DHT22;51229;51.980;6.722;2022-12-07T03:11:04;0.50;99.90
64796;DHT22;51229;51.980;6.722;2022-12-07T03:18:42;0.50;99.90
64796;DHT22;51229;51.980;6.722;2022-12-07T03:21:12;0.50;99.90
64796;DHT22;51229;51.980;6.722;2022-12-07T03:23:40;0.40;99.90
64796;DHT22;51229;51.980;6.722;2022-12-07T03:26:09;0.40;99.90
64796;DHT22;51229;51.980;6.722;2022-12-07T03:28:40;0.50;99.90
64796;DHT22;51229;51.980;6.722;2022-12-07T03:31:12;0.50;99.90
64796;DHT22;51229;51.980;6.722;2022-12-07T03:33:49;0.50;99.90
64796;DHT22;51229;51.980;6.722;2022-12-07T03:36:26;0.50;99.90
64796;DHT22;51229;51.980;6.722;2022-12-07T03:39:00;0.40;99.90
64796;DHT22;51229;51.980;6.722;2022-12-07T03:41:31;0.40;99.90
64796;DHT22;51229;51.980;6.722;2022-12-07T03:43:58;0.30;99.90
64796;DHT22;51229;51.980;6.722;2022-12-07T03:46:42;0.30;99.90
64796;DHT22;51229;51.980;6.722;2022-12-07T03:49:30;0.30;99.90
64796;DHT22;51229;51.980;6.722;2022-12-07T03:57:22;0.40;99.90
64796;DHT22;51229;51.980;6.722;2022-12-07T03:59:50;0.50;99.90
64796;DHT22;51229;51.980;6.722;2022-12-07T04:02:17;0.40;99.90
64796;DHT22;51229;51.980;6.722;2022-12-07T04:04:43;0.40;99.90
64796;DHT22;51229;51.980;6.722;2022-12-07T04:07:09;0.20;99.90
64796;DHT22;51229;51.980;6.722;2022-12-07T04:09:35;0.40;99.90
64796;DHT22;51229;51.980;6.722;2022-12-07T04:12:00;0.40;99.90
64796;DHT22;51229;51.980;6.722;2022-12-07T04:14:26;0.30;99.90
64796;DHT22;51229;51.980;6.722;2022-12-07T04:16:57;0.40;99.90
64796;DHT22;51229;51.980;6.722;2022-12-07T04:19:25;0.10;99.90
64796;DHT22;51229;51.980;6.722;2022-12-07T04:21:50;0.40;99.90
64796;DHT22;51229;51.980;6.722;2022-12-07T04:24:16;0.40;99.90
64796;DHT22;51229;51.980;6.722;2022-12-07T04:26:43;0.40;99.90
64796;DHT22;51229;51.980;6.722;2022-12-07T04:29:10;0.30;99.90
64796;DHT22;51229;51.980;6.722;2022-12-07T04:31:36;0.30;99.90
64796;DHT22;51229;51.980;6.722;2022-12-07T04:34:02;0.30;99.90
64796;DHT22;51229;51.980;6.722;2022-12-07T04:36:28;0.20;99.90
64796;DHT22;51229;51.980;6.722;2022-12-07T04:38:54;0.30;99.90
64796;DHT22;51229;51.980;6.722;2022-12-07T04:41:21;0.40;99.90
64796;DHT22;51229;51.980;6.722;2022-12-07T04:44:02;0.40;99.90
64796;DHT22;51229;51.980;6.722;2022-12-07T04:46:29;0.40;99.90
64796;DHT22;51229;51.980;6.722;2022-12-07T04:48:55;0.40;99.90
64796;DHT22;51229;51.980;6.722;2022-12-07T04:51:24;0.40;99.90
64796;DHT22;51229;51.980;6.722;2022-12-07T04:53:50;0.40;99.90
64796;DHT22;51229;51.980;6.722;2022-12-07T04:56:17;0.40;99.90
64796;DHT22;51229;51.980;6.722;2022-12-07T04:58:44;0.30;99.90
64796;DHT22;51229;51.980;6.722;2022-12-07T05:01:11;0.30;99.90
64796;DHT22;51229;51.980;6.722;2022-12-07T05:03:37;0.40;99.90
64796;DHT22;51229;51.980;6.722;2022-12-07T05:06:04;0.50;99.90
64796;DHT22;51229;51.980;6.722;2022-12-07T05:08:30;0.40;99.90
64796;DHT22;51229;51.980;6.722;2022-12-07T05:10:57;0.30;99.90
64796;DHT22;51229;51.980;6.722;2022-12-07T05:13:22;0.30;99.90
64796;DHT22;51229;51.980;6.722;2022-12-07T05:15:48;0.10;99.90
64796;DHT22;51229;51.980;6.722;2022-12-07T05:18:14;0.10;99.90
64796;DHT22;51229;51.980;6.722;2022-12-07T05:20:41;0.20;99.90
64796;DHT22;51229;51.980;6.722;2022-12-07T05:23:07;0.20;99.90
64796;DHT22;51229;51.980;6.722;2022-12-07T05:25:33;0.10;99.90
64796;DHT22;51229;51.980;6.722;2022-12-07T05:27:59;0.10;99.90
64796;DHT22;51229;51.980;6.722;2022-12-07T05:30:25;0.10;99.90
64796;DHT22;51229;51.980;6.722;2022-12-07T05:32:51;0.30;99.90
64796;DHT22;51229;51.980;6.722;2022-12-07T05:35:18;0.10;99.90
64796;DHT22;51229;51.980;6.722;2022-12-07T05:37:44;0.00;99.90
64796;DHT22;51229;51.980;6.722;2022-12-07T05:40:11;0.00;99.90
64796;DHT22;51229;51.980;6.722;2022-12-07T05:42:37;0.00;99.90
64796;DHT22;51229;51.980;6.722;2022-12-07T05:45:03;0.10;99.90
64796;DHT22;51229;51.980;6.722;2022-12-07T05:47:29;0.10;99.90
64796;DHT22;51229;51.980;6.722;2022-12-07T05:49:55;0.20;99.90
64796;DHT22;51229;51.980;6.722;2022-12-07T05:52:21;0.20;99.90
64796;DHT22;51229;51.980;6.722;2022-12-07T05:54:46;0.00;99.90
64796;DHT22;51229;51.980;6.722;2022-12-07T05:57:12;-0.10;99.90
64796;DHT22;51229;51.980;6.722;2022-12-07T05:59:38;-0.30;99.90
64796;DHT22;51229;51.980;6.722;2022-12-07T06:02:15;-0.40;99.90
64796;DHT22;51229;51.980;6.722;2022-12-07T06:04:46;-0.30;99.90
64796;DHT22;51229;51.980;6.722;2022-12-07T06:07:14;-0.20;99.90
64796;DHT22;51229;51.980;6.722;2022-12-07T06:09:40;-0.10;99.90
64796;DHT22;51229;51.980;6.722;2022-12-07T06:12:08;-0.30;99.90
64796;DHT22;51229;51.980;6.722;2022-12-07T06:14:53;-0.40;99.90
64796;DHT22;51229;51.980;6.722;2022-12-07T06:17:18;-0.50;99.90
64796;DHT22;51229;51.980;6.722;2022-12-07T06:19:44;-0.40;99.90
64796;DHT22;51229;51.980;6.722;2022-12-07T06:22:10;-0.30;99.90
64796;DHT22;51229;51.980;6.722;2022-12-07T06:24:40;-0.50;99.90
64796;DHT22;51229;51.980;6.722;2022-12-07T06:27:06;-0.60;99.90
64796;DHT22;51229;51.980;6.722;2022-12-07T06:29:32;-0.40;99.90
64796;DHT22;51229;51.980;6.722;2022-12-07T06:31:58;-0.30;99.90
64796;DHT22;51229;51.980;6.722;2022-12-07T06:34:24;-0.30;99.90
64796;DHT22;51229;51.980;6.722;2022-12-07T06:36:51;-0.40;99.90
64796;DHT22;51229;51.980;6.722;2022-12-07T06:39:20;-0.20;99.90
64796;DHT22;51229;51.980;6.722;2022-12-07T06:41:46;-0.20;99.90
64796;DHT22;51229;51.980;6.722;2022-12-07T06:44:12;-0.10;99.90
64796;DHT22;51229;51.980;6.722;2022-12-07T06:46:37;-0.40;99.90
64796;DHT22;51229;51.980;6.722;2022-12-07T06:49:04;-0.60;99.90
64796;DHT22;51229;51.980;6.722;2022-12-07T06:51:30;-0.30;99.90
64796;DHT22;51229;51.980;6.722;2022-12-07T06:53:56;-0.30;99.90
64796;DHT22;51229;51.980;6.722;2022-12-07T06:56:22;-0.60;99.90
64796;DHT22;51229;51.980;6.722;2022-12-07T06:58:48;-0.60;99.90
64796;DHT22;51229;51.980;6.722;2022-12-07T07:01:17;-0.80;99.90
64796;DHT22;51229;51.980;6.722;2022-12-07T07:03:44;-0.70;99.90
64796;DHT22;51229;51.980;6.722;2022-12-07T07:06:10;-0.60;99.90
64796;DHT22;51229;51.980;6.722;2022-12-07T07:08:37;-0.80;99.90
64796;DHT22;51229;51.980;6.722;2022-12-07T07:11:03;-0.60;99.90
64796;DHT22;51229;51.980;6.722;2022-12-07T07:13:29;-0.70;99.90
64796;DHT22;51229;51.980;6.722;2022-12-07T07:15:55;-0.60;99.90
64796;DHT22;51229;51.980;6.722;2022-12-07T07:18:21;-0.80;99.90
64796;DHT22;51229;51.980;6.722;2022-12-07T07:20:47;-0.80;99.90
64796;DHT22;51229;51.980;6.722;2022-12-07T07:23:13;-0.70;99.90
64796;DHT22;51229;51.980;6.722;2022-12-07T07:25:39;-0.70;99.90
64796;DHT22;51229;51.980;6.722;2022-12-07T07:28:05;-0.70;99.90
64796;DHT22;51229;51.980;6.722;2022-12-07T07:30:31;-0.80;99.90
64796;DHT22;51229;51.980;6.722;2022-12-07T07:33:01;-0.90;99.90
64796;DHT22;51229;51.980;6.722;2022-12-07T07:35:28;-0.80;99.90
64796;DHT22;51229;51.980;6.722;2022-12-07T07:37:54;-0.80;99.90
64796;DHT22;51229;51.980;6.722;2022-12-07T07:40:19;-0.80;99.90
64796;DHT22;51229;51.980;6.722;2022-12-07T07:42:49;-0.90;99.90
64796;DHT22;51229;51.980;6.722;2022-12-07T07:45:15;-0.80;99.90
64796;DHT22;51229;51.980;6.722;2022-12-07T07:47:41;-0.80;99.90
64796;DHT22;51229;51.980;6.722;2022-12-07T07:50:07;-0.70;99.90
64796;DHT22;51229;51.980;6.722;2022-12-07T07:52:33;-0.70;99.90
64796;DHT22;51229;51.980;6.722;2022-12-07T07:54:59;-0.70;99.90
64796;DHT22;51229;51.980;6.722;2022-12-07T07:57:24;-0.60;99.90
64796;DHT22;51229;51.980;6.722;2022-12-07T07:59:50;-0.50;99.90
64796;DHT22;51229;51.980;6.722;2022-12-07T08:02:18;-0.50;99.90
64796;DHT22;51229;51.980;6.722;2022-12-07T08:04:44;-0.60;99.90
64796;DHT22;51229;51.980;6.722;2022-12-07T08:07:10;-0.70;99.90
64796;DHT22;51229;51.980;6.722;2022-12-07T08:09:36;-0.50;99.90
64796;DHT22;51229;51.980;6.722;2022-12-07T08:12:02;-0.40;99.90
64796;DHT22;51229;51.980;6.722;2022-12-07T08:14:28;-0.40;99.90
64796;DHT22;51229;51.980;6.722;2022-12-07T08:16:54;-0.30;99.90
64796;DHT22;51229;51.980;6.722;2022-12-07T08:19:20;-0.30;99.90
64796;DHT22;51229;51.980;6.722;2022-12-07T08:21:46;-0.40;99.90
64796;DHT22;51229;51.980;6.722;2022-12-07T08:24:12;-0.40;99.90
64796;DHT22;51229;51.980;6.722;2022-12-07T08:26:37;-0.30;99.90
64796;DHT22;51229;51.980;6.722;2022-12-07T08:29:03;-0.40;99.90
64796;DHT22;51229;51.980;6.722;2022-12-07T08:31:29;-0.40;99.90
64796;DHT22;51229;51.980;6.722;2022-12-07T08:33:55;-0.40;99.90
64796;DHT22;51229;51.980;6.722;2022-12-07T08:36:20;-0.50;99.90
64796;DHT22;51229;51.980;6.722;2022-12-07T08:38:48;-0.40;99.90
64796;DHT22;51229;51.980;6.722;2022-12-07T08:41:14;-0.50;99.90
64796;DHT22;51229;51.980;6.722;2022-12-07T08:43:40;-0.30;99.90
64796;DHT22;51229;51.980;6.722;2022-12-07T08:46:46;-0.30;99.90
64796;DHT22;51229;51.980;6.722;2022-12-07T08:49:57;-0.30;99.90
64796;DHT22;51229;51.980;6.722;2022-12-07T08:52:04;-0.20;99.90
64796;DHT22;51229;51.980;6.722;2022-12-07T08:54:30;-0.20;99.90
64796;DHT22;51229;51.980;6.722;2022-12-07T08:56:56;-0.10;99.90
64796;DHT22;51229;51.980;6.722;2022-12-07T08:59:22;0.00;99.90
64796;DHT22;51229;51.980;6.722;2022-12-07T09:01:48;0.40;99.90
64796;DHT22;51229;51.980;6.722;2022-12-07T09:04:14;0.90;99.90
64796;DHT22;51229;51.980;6.722;2022-12-07T09:06:41;0.90;99.90
64796;DHT22;51229;51.980;6.722;2022-12-07T09:09:08;1.20;99.90
64796;DHT22;51229;51.980;6.722;2022-12-07T09:11:35;2.50;99.90
64796;DHT22;51229;51.980;6.722;2022-12-07T09:14:01;3.20;99.90
64796;DHT22;51229;51.980;6.722;2022-12-07T09:16:27;2.40;99.90
64796;DHT22;51229;51.980;6.722;2022-12-07T09:18:52;2.50;99.90
64796;DHT22;51229;51.980;6.722;2022-12-07T09:21:18;3.60;99.90
64796;DHT22;51229;51.980;6.722;2022-12-07T09:23:44;4.80;99.90
64796;DHT22;51229;51.980;6.722;2022-12-07T09:26:10;3.90;99.90
64796;DHT22;51229;51.980;6.722;2022-12-07T09:28:36;2.60;99.90
64796;DHT22;51229;51.980;6.722;2022-12-07T09:31:02;2.00;99.90
64796;DHT22;51229;51.980;6.722;2022-12-07T09:33:28;1.80;99.90
64796;DHT22;51229;51.980;6.722;2022-12-07T09:35:54;1.70;99.90
64796;DHT22;51229;51.980;6.722;2022-12-07T09:38:20;1.60;99.90
64796;DHT22;51229;51.980;6.722;2022-12-07T09:40:47;1.50;99.90
64796;DHT22;51229;51.980;6.722;2022-12-07T09:43:19;1.50;99.90
64796;DHT22;51229;51.980;6.722;2022-12-07T09:45:47;1.40;99.90
64796;DHT22;51229;51.980;6.722;2022-12-07T09:48:22;1.60;99.90
64796;DHT22;51229;51.980;6.722;2022-12-07T09:50:51;1.60;99.90
64796;DHT22;51229;51.980;6.722;2022-12-07T09:53:25;1.50;99.90
64796;DHT22;51229;51.980;6.722;2022-12-07T09:55:52;1.50;99.90
64796;DHT22;51229;51.980;6.722;2022-12-07T09:58:26;1.60;99.90
64796;DHT22;51229;51.980;6.722;2022-12-07T10:01:22;1.80;99.90
64796;DHT22;51229;51.980;6.722;2022-12-07T10:06:17;3.60;99.90
64796;DHT22;51229;51.980;6.722;2022-12-07T10:08:42;3.50;99.90
64796;DHT22;51229;51.980;6.722;2022-12-07T10:11:09;4.30;99.90
64796;DHT22;51229;51.980;6.722;2022-12-07T10:13:43;5.20;99.90
64796;DHT22;51229;51.980;6.722;2022-12-07T10:16:40;5.90;99.90
64796;DHT22;51229;51.980;6.722;2022-12-07T10:19:29;6.50;99.90
64796;DHT22;51229;51.980;6.722;2022-12-07T10:22:14;6.70;99.90
64796;DHT22;51229;51.980;6.722;2022-12-07T10:24:41;7.00;99.90
64796;DHT22;51229;51.980;6.722;2022-12-07T10:27:31;5.80;99.90
64796;DHT22;51229;51.980;6.722;2022-12-07T10:29:57;5.30;99.90
64796;DHT22;51229;51.980;6.722;2022-12-07T10:32:33;5.60;99.90
64796;DHT22;51229;51.980;6.722;2022-12-07T10:35:20;5.50;99.90
64796;DHT22;51229;51.980;6.722;2022-12-07T10:37:47;5.90;99.90
64796;DHT22;51229;51.980;6.722;2022-12-07T10:40:34;5.70;99.90
64796;DHT22;51229;51.980;6.722;2022-12-07T10:43:20;5.30;99.90
64796;DHT22;51229;51.980;6.722;2022-12-07T10:46:19;5.20;99.90
64796;DHT22;51229;51.980;6.722;2022-12-07T10:49:06;5.20;99.90
64796;DHT22;51229;51.980;6.722;2022-12-07T10:54:10;6.30;99.90
64796;DHT22;51229;51.980;6.722;2022-12-07T10:57:06;6.50;99.90
64796;DHT22;51229;51.980;6.722;2022-12-07T11:08:05;7.60;99.90
64796;DHT22;51229;51.980;6.722;2022-12-07T11:19:55;8.60;99.90
64796;DHT22;51229;51.980;6.722;2022-12-07T11:25:20;9.50;99.90
64796;DHT22;51229;51.980;6.722;2022-12-07T11:33:45;10.00;99.90
64796;DHT22;51229;51.980;6.722;2022-12-07T11:39:18;7.60;99.90
64796;DHT22;51229;51.980;6.722;2022-12-07T11:41:51;7.40;99.90
64796;DHT22;51229;51.980;6.722;2022-12-07T11:44:39;7.60;99.90
64796;DHT22;51229;51.980;6.722;2022-12-07T11:47:12;7.10;99.90
64796;DHT22;51229;51.980;6.722;2022-12-07T11:49:58;6.60;99.90
64796;DHT22;51229;51.980;6.722;2022-12-07T11:52:53;6.60;99.90
64796;DHT22;51229;51.980;6.722;2022-12-07T11:55:43;6.60;99.90
64796;DHT22;51229;51.980;6.722;2022-12-07T12:06:42;6.40;99.90
64796;DHT22;51229;51.980;6.722;2022-12-07T12:09:14;6.00;99.90
64796;DHT22;51229;51.980;6.722;2022-12-07T12:26:20;5.80;99.90
64796;DHT22;51229;51.980;6.722;2022-12-07T12:31:10;6.00;99.90
64796;DHT22;51229;51.980;6.722;2022-12-07T12:33:38;5.80;99.90
64796;DHT22;51229;51.980;6.722;2022-12-07T12:36:44;5.70;99.90
64796;DHT22;51229;51.980;6.722;2022-12-07T12:39:17;5.70;99.90
64796;DHT22;51229;51.980;6.722;2022-12-07T12:46:59;6.10;99.90
64796;DHT22;51229;51.980;6.722;2022-12-07T12:54:38;5.60;99.90
64796;DHT22;51229;51.980;6.722;2022-12-07T12:57:20;5.70;99.90
64796;DHT22;51229;51.980;6.722;2022-12-07T13:02:30;5.60;99.90
64796;DHT22;51229;51.980;6.722;2022-12-07T13:15:42;5.10;99.90
64796;DHT22;51229;51.980;6.722;2022-12-07T13:23:26;5.20;99.90
64796;DHT22;51229;51.980;6.722;2022-12-07T13:28:39;5.30;99.90
64796;DHT22;51229;51.980;6.722;2022-12-07T13:33:39;5.10;99.90
64796;DHT22;51229;51.980;6.722;2022-12-07T13:36:17;5.00;99.90
64796;DHT22;51229;51.980;6.722;2022-12-07T13:41:42;4.90;99.90
64796;DHT22;51229;51.980;6.722;2022-12-07T13:44:13;4.70;99.90
64796;DHT22;51229;51.980;6.722;2022-12-07T13:49:24;4.90;99.90
64796;DHT22;51229;51.980;6.722;2022-12-07T13:51:51;4.90;99.90
64796;DHT22;51229;51.980;6.722;2022-12-07T13:54:17;4.70;99.90
64796;DHT22;51229;51.980;6.722;2022-12-07T13:56:44;4.50;99.90
64796;DHT22;51229;51.980;6.722;2022-12-07T13:59:25;4.70;99.90
64796;DHT22;51229;51.980;6.722;2022-12-07T14:01:53;4.80;99.90
64796;DHT22;51229;51.980;6.722;2022-12-07T14:04:33;4.80;99.90
64796;DHT22;51229;51.980;6.722;2022-12-07T14:07:00;4.70;99.90
64796;DHT22;51229;51.980;6.722;2022-12-07T14:09:29;4.70;99.90
64796;DHT22;51229;51.980;6.722;2022-12-07T14:11:57;4.80;99.90
64796;DHT22;51229;51.980;6.722;2022-12-07T14:14:26;4.70;99.90
64796;DHT22;51229;51.980;6.722;2022-12-07T14:17:16;4.60;99.90
64796;DHT22;51229;51.980;6.722;2022-12-07T14:19:56;4.50;99.90
64796;DHT22;51229;51.980;6.722;2022-12-07T14:24:58;4.40;99.90
64796;DHT22;51229;51.980;6.722;2022-12-07T14:27:24;4.30;99.90
64796;DHT22;51229;51.980;6.722;2022-12-07T14:29:56;4.40;99.90
64796;DHT22;51229;51.980;6.722;2022-12-07T14:32:24;4.40;99.90
64796;DHT22;51229;51.980;6.722;2022-12-07T14:37:20;4.20;99.90
64796;DHT22;51229;51.980;6.722;2022-12-07T14:39:46;4.10;99.90
64796;DHT22;51229;51.980;6.722;2022-12-07T14:42:11;4.20;99.90
64796;DHT22;51229;51.980;6.722;2022-12-07T14:44:37;4.10;99.90
64796;DHT22;51229;51.980;6.722;2022-12-07T14:47:03;4.10;99.90
64796;DHT22;51229;51.980;6.722;2022-12-07T14:49:28;4.10;99.90
64796;DHT22;51229;51.980;6.722;2022-12-07T14:51:54;3.90;99.90
64796;DHT22;51229;51.980;6.722;2022-12-07T14:54:20;3.80;99.90
64796;DHT22;51229;51.980;6.722;2022-12-07T14:56:50;3.90;99.90
64796;DHT22;51229;51.980;6.722;2022-12-07T14:59:17;4.00;99.90
64796;DHT22;51229;51.980;6.722;2022-12-07T15:01:43;3.80;99.90
64796;DHT22;51229;51.980;6.722;2022-12-07T15:04:09;3.60;99.90
64796;DHT22;51229;51.980;6.722;2022-12-07T15:06:35;3.70;99.90
64796;DHT22;51229;51.980;6.722;2022-12-07T15:09:02;3.80;99.90
64796;DHT22;51229;51.980;6.722;2022-12-07T15:11:29;3.80;99.90
64796;DHT22;51229;51.980;6.722;2022-12-07T15:13:54;3.70;99.90
64796;DHT22;51229;51.980;6.722;2022-12-07T15:16:39;3.70;99.90
64796;DHT22;51229;51.980;6.722;2022-12-07T15:19:09;3.60;99.90
64796;DHT22;51229;51.980;6.722;2022-12-07T15:21:35;3.50;99.90
64796;DHT22;51229;51.980;6.722;2022-12-07T15:24:01;3.30;99.90
64796;DHT22;51229;51.980;6.722;2022-12-07T15:26:27;3.30;99.90
64796;DHT22;51229;51.980;6.722;2022-12-07T15:28:53;3.30;99.90
64796;DHT22;51229;51.980;6.722;2022-12-07T15:31:20;3.30;99.90
64796;DHT22;51229;51.980;6.722;2022-12-07T15:33:45;3.40;99.90
64796;DHT22;51229;51.980;6.722;2022-12-07T15:36:22;3.30;99.90
64796;DHT22;51229;51.980;6.722;2022-12-07T15:38:48;3.20;99.90
64796;DHT22;51229;51.980;6.722;2022-12-07T15:41:14;3.20;99.90
64796;DHT22;51229;51.980;6.722;2022-12-07T15:43:40;3.20;99.90
64796;DHT22;51229;51.980;6.722;2022-12-07T15:46:32;3.10;99.90
64796;DHT22;51229;51.980;6.722;2022-12-07T15:48:58;3.00;99.90
64796;DHT22;51229;51.980;6.722;2022-12-07T15:51:24;3.00;99.90
64796;DHT22;51229;51.980;6.722;2022-12-07T15:53:50;2.90;99.90
64796;DHT22;51229;51.980;6.722;2022-12-07T15:56:16;2.90;99.90
64796;DHT22;51229;51.980;6.722;2022-12-07T15:58:41;2.90;99.90
64796;DHT22;51229;51.980;6.722;2022-12-07T16:01:15;2.90;99.90
64796;DHT22;51229;51.980;6.722;2022-12-07T16:03:42;2.80;99.90
64796;DHT22;51229;51.980;6.722;2022-12-07T16:06:08;2.80;99.90
64796;DHT22;51229;51.980;6.722;2022-12-07T16:08:34;2.70;99.90
64796;DHT22;51229;51.980;6.722;2022-12-07T16:10:59;2.70;99.90
64796;DHT22;51229;51.980;6.722;2022-12-07T16:13:25;2.70;99.90
64796;DHT22;51229;51.980;6.722;2022-12-07T16:15:51;2.80;99.90
64796;DHT22;51229;51.980;6.722;2022-12-07T16:18:16;2.80;99.90
64796;DHT22;51229;51.980;6.722;2022-12-07T16:20:42;2.60;99.90
64796;DHT22;51229;51.980;6.722;2022-12-07T16:23:08;2.60;99.90
64796;DHT22;51229;51.980;6.722;2022-12-07T16:25:34;2.80;99.90
64796;DHT22;51229;51.980;6.722;2022-12-07T16:27:59;2.70;99.90
64796;DHT22;51229;51.980;6.722;2022-12-07T16:30:25;2.60;99.90
64796;DHT22;51229;51.980;6.722;2022-12-07T16:32:51;2.60;99.90
64796;DHT22;51229;51.980;6.722;2022-12-07T16:35:17;2.50;99.90
64796;DHT22;51229;51.980;6.722;2022-12-07T16:37:46;2.40;99.90
64796;DHT22;51229;51.980;6.722;2022-12-07T16:40:12;2.40;99.90
64796;DHT22;51229;51.980;6.722;2022-12-07T16:42:37;2.30;99.90
64796;DHT22;51229;51.980;6.722;2022-12-07T16:45:04;2.40;99.90
64796;DHT22;51229;51.980;6.722;2022-12-07T16:47:29;2.50;99.90
64796;DHT22;51229;51.980;6.722;2022-12-07T16:49:55;2.50;99.90
64796;DHT22;51229;51.980;6.722;2022-12-07T16:52:21;2.30;99.90
64796;DHT22;51229;51.980;6.722;2022-12-07T16:54:48;2.20;99.90
64796;DHT22;51229;51.980;6.722;2022-12-07T16:57:15;2.20;99.90
64796;DHT22;51229;51.980;6.722;2022-12-07T16:59:41;2.20;99.90
64796;DHT22;51229;51.980;6.722;2022-12-07T17:02:10;2.30;99.90
64796;DHT22;51229;51.980;6.722;2022-12-07T17:04:36;2.30;99.90
64796;DHT22;51229;51.980;6.722;2022-12-07T17:07:05;2.20;99.90
64796;DHT22;51229;51.980;6.722;2022-12-07T17:09:31;2.00;99.90
64796;DHT22;51229;51.980;6.722;2022-12-07T17:11:57;2.20;99.90
64796;DHT22;51229;51.980;6.722;2022-12-07T17:14:22;2.20;99.90
64796;DHT22;51229;51.980;6.722;2022-12-07T17:17:06;2.20;99.90
64796;DHT22;51229;51.980;6.722;2022-12-07T17:19:32;2.20;99.90
64796;DHT22;51229;51.980;6.722;2022-12-07T17:21:58;2.00;99.90
64796;DHT22;51229;51.980;6.722;2022-12-07T17:24:24;1.90;99.90
64796;DHT22;51229;51.980;6.722;2022-12-07T17:26:50;2.10;99.90
64796;DHT22;51229;51.980;6.722;2022-12-07T17:29:17;2.10;99.90
64796;DHT22;51229;51.980;6.722;2022-12-07T17:31:43;2.10;99.90
64796;DHT22;51229;51.980;6.722;2022-12-07T17:34:11;2.00;99.90
64796;DHT22;51229;51.980;6.722;2022-12-07T17:36:37;1.90;99.90
64796;DHT22;51229;51.980;6.722;2022-12-07T17:39:10;1.80;99.90
64796;DHT22;51229;51.980;6.722;2022-12-07T17:41:37;2.00;99.90
64796;DHT22;51229;51.980;6.722;2022-12-07T17:44:22;2.00;99.90
64796;DHT22;51229;51.980;6.722;2022-12-07T17:46:50;2.00;99.90
64796;DHT22;51229;51.980;6.722;2022-12-07T17:49:20;2.10;99.90
64796;DHT22;51229;51.980;6.722;2022-12-07T17:51:46;2.10;99.90
64796;DHT22;51229;51.980;6.722;2022-12-07T17:54:30;2.00;99.90
64796;DHT22;51229;51.980;6.722;2022-12-07T17:56:56;2.10;99.90
64796;DHT22;51229;51.980;6.722;2022-12-07T17:59:23;2.00;99.90
64796;DHT22;51229;51.980;6.722;2022-12-07T18:01:49;2.00;99.90
64796;DHT22;51229;51.980;6.722;2022-12-07T18:04:14;1.90;99.90
64796;DHT22;51229;51.980;6.722;2022-12-07T18:06:40;2.00;99.90
64796;DHT22;51229;51.980;6.722;2022-12-07T18:09:06;1.90;99.90
64796;DHT22;51229;51.980;6.722;2022-12-07T18:11:33;2.00;99.90